Time;durP1;ratioP1;P1;durP2;ratioP2;P2;SDS_P1;SDS_P2;PMS_P1;PMS_P2;Temp;Humidity;BMP_temperature;BMP_pressure;BME280_temperature;BME280_humidity;BME280_pressure;Samples;Min_cycle;Max_cycle;Signal;HPM_P1;HPM_P2
2023/03/16 00:00:58;;;;;;;;;;;;;;;;;;4230894;28;19977;-39
2023/03/16 00:02:59;;;;;;;;;;;;;;;;;;4221290;28;19924;-40
2023/03/16 00:05:01;;;;;;;;;;;;;;;;;;4229562;27;19935;-40
2023/03/16 00:07:01;;;;;;;;;;;;;;;;;;4247104;27;19922;-40
2023/03/16 00:09:02;;;;;;;;;;;;;;;;;;4247427;27;20286;-39
2023/03/16 00:11:03;;;;;;;;;;;;;;;;;;4239672;27;19953;-40
2023/03/16 00:13:04;;;;;;;;;;;;;;;;;;4241504;27;20271;-40
2023/03/16 00:15:06;;;;;;;;;;;;;;;;;;4232992;27;19916;-40
2023/03/16 00:17:07;;;;;;;;;;;;;;;;;;4233542;27;19915;-39
2023/03/16 00:19:08;;;;;;;;;;;;;;;;;;4240864;27;19919;-39
2023/03/16 00:21:09;;;;;;;;;;;;;;;;;;4219249;28;19927;-41
2023/03/16 00:23:10;;;;;;;;;;;;;;;;;;4243541;27;20002;-40
2023/03/16 00:25:13;;;;;;;;;;;;;;;;;;4247157;27;19934;-39
2023/03/16 00:27:14;;;;;;;;;;;;;;;;;;4246982;27;20374;-39
2023/03/16 00:29:15;;;;;;;;;;;;;;;;;;4238189;27;19916;-39
2023/03/16 00:31:16;;;;;;;;;;;;;;;;;;4229935;28;19920;-39
2023/03/16 00:33:18;;;;;;;;;;;;;;;;;;4231451;27;19945;-39
2023/03/16 00:35:21;;;;;;;;;;;;;;;;;;4247137;27;20272;-40
2023/03/16 00:37:22;;;;;;;;;;;;;;;;;;4228709;28;19915;-39
2023/03/16 00:39:25;;;;;;;;;;;;;;;;;;4245294;27;20392;-39
2023/03/16 00:41:26;;;;;;;;;;;;;;;;;;4231750;28;20010;-40
2023/03/16 00:43:27;;;;;;;;;;;;;;;;;;4229866;28;19984;-39
2023/03/16 00:45:28;;;;;;;;;;;;;;;;;;4228935;28;19923;-40
2023/03/16 00:47:29;;;;;;;;;;;;;;;;;;4239815;27;20719;-39
2023/03/16 00:49:33;;;;;;;;;;;;;;;;;;4246770;27;19964;-40
2023/03/16 00:51:34;;;;;;;;;;;;;;;;;;4228732;28;19916;-40
2023/03/16 00:53:35;;;;;;;;;;;;;;;;;;4239080;27;19941;-39
2023/03/16 00:55:37;;;;;;;;;;;;;;;;;;4227376;28;20422;-40
2023/03/16 00:57:38;;;;;;;;;;;;;;;;;;4207457;28;19916;-41
2023/03/16 00:59:39;;;;;;;;;;;;;;;;;;4232491;27;19976;-39
2023/03/16 01:01:40;;;;;;;;;;;;;;;;;;4244516;27;19952;-40
2023/03/16 01:03:41;;;;;;;;;;;;;;;;;;4237989;27;19923;-40
2023/03/16 01:05:42;;;;;;;;;;;;;;;;;;4229983;28;19915;-39
2023/03/16 01:07:44;;;;;;;;;;;;;;;;;;4241987;27;20280;-39
2023/03/16 01:09:45;;;;;;;;;;;;;;;;;;4211828;28;19924;-39
2023/03/16 01:11:52;;;;;;;;;;;;;;;;;;4229583;28;19931;-40
2023/03/16 01:13:53;;;;;;;;;;;;;;;;;;4241225;27;19915;-40
2023/03/16 01:15:54;;;;;;;;;;;;;;;;;;4230511;27;19969;-40
2023/03/16 01:17:55;;;;;;;;;;;;;;;;;;4229568;28;19962;-40
2023/03/16 01:19:56;;;;;;;;;;;;;;;;;;4237286;27;19919;-40
2023/03/16 01:21:57;;;;;;;;;;;;;;;;;;4236268;27;20457;-39
2023/03/16 01:23:58;;;;;;;;;;;;;;;;;;4228159;28;20449;-40
2023/03/16 01:25:58;;;;;;;;;;;;;;;;;;4206463;28;20443;-39
2023/03/16 01:28:00;;;;;;;;;;;;;;;;;;4202007;28;20408;-40
2023/03/16 01:30:01;;;;;;;;;;;;;;;;;;4194555;28;20010;-39
2023/03/16 01:32:03;;;;;;;;;;;;;;;;;;4181855;28;20280;-40
2023/03/16 01:34:04;;;;;;;;;;;;;;;;;;4194383;28;19924;-40
2023/03/16 01:36:06;;;;;;;;;;;;;;;;;;4195814;28;19916;-40
2023/03/16 01:38:15;;;;;;;;;;;;;;;;;;4203922;28;20249;-40
2023/03/16 01:40:16;;;;;;;;;;;;;;;;;;4194669;28;19959;-39
2023/03/16 01:42:17;;;;;;;;;;;;;;;;;;4210319;28;19992;-40
2023/03/16 01:44:18;;;;;;;;;;;;;;;;;;4183015;28;20322;-40
2023/03/16 01:46:20;;;;;;;;;;;;;;;;;;4194421;28;19920;-41
2023/03/16 01:48:23;;;;;;;;;;;;;;;;;;4194378;28;20426;-39
2023/03/16 01:50:24;;;;;;;;;;;;;;;;;;4193047;28;19970;-39
2023/03/16 01:52:25;;;;;;;;;;;;;;;;;;4179297;28;19971;-40
2023/03/16 01:54:26;;;;;;;;;;;;;;;;;;4188339;28;20310;-39
2023/03/16 01:56:27;;;;;;;;;;;;;;;;;;4205327;28;20292;-39
2023/03/16 01:58:28;;;;;;;;;;;;;;;;;;4199073;28;20433;-39
2023/03/16 02:00:30;;;;;;;;;;;;;;;;;;4198090;28;19920;-39
2023/03/16 02:02:57;;;;;;;;;;;;;;;;;;4202064;28;19920;-40
2023/03/16 02:05:07;;;;;;;;;;;;;;;;;;4195211;28;20319;-40
2023/03/16 02:07:09;;;;;;;;;;;;;;;;;;4193854;28;19920;-40
2023/03/16 02:09:11;;;;;;;;;;;;;;;;;;4187914;28;19970;-40
2023/03/16 02:11:15;;;;;;;;;;;;;;;;;;4205332;28;19921;-39
2023/03/16 02:13:24;;;;;;;;;;;;;;;;;;4196082;28;19923;-40
2023/03/16 02:15:26;;;;;;;;;;;;;;;;;;4197592;28;20260;-41
2023/03/16 02:17:27;;;;;;;;;;;;;;;;;;4187992;28;20288;-40
2023/03/16 02:19:32;;;;;;;;;;;;;;;;;;4180846;28;20277;-39
2023/03/16 02:21:33;;;;;;;;;;;;;;;;;;4197168;28;20010;-39
2023/03/16 02:23:34;;;;;;;;;;;;;;;;;;4193437;28;20346;-40
2023/03/16 02:25:35;;;;;;;;;;;;;;;;;;4203401;28;19916;-39
2023/03/16 02:27:37;;;;;;;;;;;;;;;;;;4230799;28;19919;-39
2023/03/16 02:29:38;;;;;;;;;;;;;;;;;;4213945;28;19919;-39
2023/03/16 02:31:39;;;;;;;;;;;;;;;;;;4216201;28;19927;-40
2023/03/16 02:33:41;;;;;;;;;;;;;;;;;;4213974;28;19915;-40
2023/03/16 02:35:43;;;;;;;;;;;;;;;;;;4212461;28;19920;-40
2023/03/16 02:37:44;;;;;;;;;;;;;;;;;;4213961;28;19920;-39
2023/03/16 02:39:45;;;;;;;;;;;;;;;;;;4228945;28;19938;-39
2023/03/16 02:41:50;;;;;;;;;;;;;;;;;;4213689;28;19916;-42
2023/03/16 02:43:51;;;;;;;;;;;;;;;;;;4213847;28;19919;-40
2023/03/16 02:46:02;;;;;;;;;;;;;;;;;;4210062;28;20343;-39
2023/03/16 02:48:04;;;;;;;;;;;;;;;;;;4196859;28;19916;-40
2023/03/16 02:50:05;;;;;;;;;;;;;;;;;;4202998;28;19920;-40
2023/03/16 02:52:06;;;;;;;;;;;;;;;;;;4222653;28;20375;-40
2023/03/16 02:54:07;;;;;;;;;;;;;;;;;;4213722;28;19962;-39
2023/03/16 02:56:09;;;;;;;;;;;;;;;;;;4208809;28;19924;-40
2023/03/16 02:58:11;;;;;;;;;;;;;;;;;;4198569;28;19923;-39
2023/03/16 03:00:16;;;;;;;;;;;;;;;;;;4232043;28;19923;-39
2023/03/16 03:02:18;;;;;;;;;;;;;;;;;;4212844;28;20034;-40
2023/03/16 03:04:22;;;;;;;;;;;;;;;;;;4212899;28;19920;-40
2023/03/16 03:06:24;;;;;;;;;;;;;;;;;;4191491;28;19970;-40
2023/03/16 03:08:24;;;;;;;;;;;;;;;;;;4212469;28;19923;-39
2023/03/16 03:10:26;;;;;;;;;;;;;;;;;;4224628;28;20347;-39
2023/03/16 03:12:27;;;;;;;;;;;;;;;;;;4212922;28;19923;-39
2023/03/16 03:14:28;;;;;;;;;;;;;;;;;;4227716;28;19988;-40
2023/03/16 03:16:30;;;;;;;;;;;;;;;;;;4202976;28;19923;-42
2023/03/16 03:18:33;;;;;;;;;;;;;;;;;;4213100;28;19916;-40
2023/03/16 03:20:34;;;;;;;;;;;;;;;;;;4213298;28;19915;-42
2023/03/16 03:22:35;;;;;;;;;;;;;;;;;;4211132;28;19917;-39
2023/03/16 03:24:37;;;;;;;;;;;;;;;;;;4212367;28;19916;-39
2023/03/16 03:26:38;;;;;;;;;;;;;;;;;;4220524;28;19920;-39
2023/03/16 03:28:41;;;;;;;;;;;;;;;;;;4213104;28;19920;-40
2023/03/16 03:30:42;;;;;;;;;;;;;;;;;;4195331;28;20389;-40
2023/03/16 03:32:43;;;;;;;;;;;;;;;;;;4201722;28;20396;-39
2023/03/16 03:34:44;;;;;;;;;;;;;;;;;;4204921;28;19955;-39
2023/03/16 03:36:45;;;;;;;;;;;;;;;;;;4212784;28;20296;-40
2023/03/16 03:38:48;;;;;;;;;;;;;;;;;;4210929;28;19915;-40
2023/03/16 03:40:49;;;;;;;;;;;;;;;;;;4208453;28;20336;-40
2023/03/16 03:42:50;;;;;;;;;;;;;;;;;;4196274;28;19920;-40
2023/03/16 03:44:51;;;;;;;;;;;;;;;;;;4207305;28;19916;-40
2023/03/16 03:46:53;;;;;;;;;;;;;;;;;;4181682;28;20412;-40
2023/03/16 03:48:54;;;;;;;;;;;;;;;;;;4209410;28;19982;-39
2023/03/16 03:50:54;;;;;;;;;;;;;;;;;;4202285;28;19967;-40
2023/03/16 03:53:07;;;;;;;;;;;;;;;;;;4225170;28;19922;-39
2023/03/16 03:55:19;;;;;;;;;;;;;;;;;;4210393;28;19926;-39
2023/03/16 03:57:19;;;;;;;;;;;;;;;;;;4211674;28;19920;-41
2023/03/16 03:59:21;;;;;;;;;;;;;;;;;;4212714;28;19916;-41
2023/03/16 04:01:41;;;;;;;;;;;;;;;;;;4200588;28;19916;-40
2023/03/16 04:03:42;;;;;;;;;;;;;;;;;;4215998;28;19915;-39
2023/03/16 04:05:43;;;;;;;;;;;;;;;;;;4195664;28;19955;-40
2023/03/16 04:07:46;;;;;;;;;;;;;;;;;;4215601;28;19915;-40
2023/03/16 04:09:48;;;;;;;;;;;;;;;;;;4229387;28;20193;-39
2023/03/16 04:11:56;;;;;;;;;;;;;;;;;;4223244;28;19949;-39
2023/03/16 04:13:59;;;;;;;;;;;;;;;;;;4212074;28;19927;-39
2023/03/16 04:16:03;;;;;;;;;;;;;;;;;;4201598;28;19916;-40
2023/03/16 04:18:11;;;;;;;;;;;;;;;;;;4226990;28;20053;-40
2023/03/16 04:20:17;;;;;;;;;;;;;;;;;;4212310;28;19920;-39
2023/03/16 04:22:22;;;;;;;;;;;;;;;;;;4220147;28;20467;-41
2023/03/16 04:24:23;;;;;;;;;;;;;;;;;;4212250;28;20405;-40
2023/03/16 04:26:24;;;;;;;;;;;;;;;;;;4216133;28;19924;-41
2023/03/16 04:28:26;;;;;;;;;;;;;;;;;;4207973;28;19928;-39
2023/03/16 04:30:27;;;;;;;;;;;;;;;;;;4213403;28;19924;-40
2023/03/16 04:32:36;;;;;;;;;;;;;;;;;;4206797;28;19916;-39
2023/03/16 04:34:40;;;;;;;;;;;;;;;;;;4197947;28;19916;-39
2023/03/16 04:36:41;;;;;;;;;;;;;;;;;;4207335;28;20376;-39
2023/03/16 04:38:42;;;;;;;;;;;;;;;;;;4203438;28;19916;-39
2023/03/16 04:40:44;;;;;;;;;;;;;;;;;;4201095;28;19916;-40
2023/03/16 04:42:50;;;;;;;;;;;;;;;;;;4193092;28;19950;-39
2023/03/16 04:44:54;;;;;;;;;;;;;;;;;;4200050;28;19915;-40
2023/03/16 04:46:55;;;;;;;;;;;;;;;;;;4211494;28;19961;-39
2023/03/16 04:48:58;;;;;;;;;;;;;;;;;;4200539;28;19927;-40
2023/03/16 04:51:04;;;;;;;;;;;;;;;;;;4195175;28;19923;-40
2023/03/16 04:53:07;;;;;;;;;;;;;;;;;;4199926;28;19916;-39
2023/03/16 04:55:08;;;;;;;;;;;;;;;;;;4211896;28;19923;-39
2023/03/16 04:57:10;;;;;;;;;;;;;;;;;;4194770;28;19920;-40
2023/03/16 04:59:16;;;;;;;;;;;;;;;;;;4209933;28;19923;-40
2023/03/16 05:01:24;;;;;;;;;;;;;;;;;;4194665;28;20326;-39
2023/03/16 05:03:28;;;;;;;;;;;;;;;;;;4195023;28;20421;-40
2023/03/16 05:05:29;;;;;;;;;;;;;;;;;;4206895;28;20056;-39
2023/03/16 05:07:31;;;;;;;;;;;;;;;;;;4196291;28;20015;-40
2023/03/16 05:09:32;;;;;;;;;;;;;;;;;;4211985;28;20010;-39
2023/03/16 05:11:33;;;;;;;;;;;;;;;;;;4219266;28;20240;-39
2023/03/16 05:13:36;;;;;;;;;;;;;;;;;;4217330;28;20315;-39
2023/03/16 05:15:38;;;;;;;;;;;;;;;;;;4225426;28;19964;-39
2023/03/16 05:17:52;;;;;;;;;;;;;;;;;;4216686;28;19978;-39
2023/03/16 05:19:53;;;;;;;;;;;;;;;;;;4212906;28;19920;-40
2023/03/16 05:21:55;;;;;;;;;;;;;;;;;;4223467;28;19969;-39
2023/03/16 05:23:57;;;;;;;;;;;;;;;;;;4211385;28;20359;-40
2023/03/16 05:25:58;;;;;;;;;;;;;;;;;;4211051;28;19915;-40
2023/03/16 05:28:00;;;;;;;;;;;;;;;;;;4220139;28;20020;-40
2023/03/16 05:30:07;;;;;;;;;;;;;;;;;;4211292;28;20352;-39
2023/03/16 05:32:09;;;;;;;;;;;;;;;;;;4209181;28;19923;-39
2023/03/16 05:34:11;;;;;;;;;;;;;;;;;;4211270;28;19916;-40
2023/03/16 05:36:12;;;;;;;;;;;;;;;;;;4220406;28;19916;-39
2023/03/16 05:38:14;;;;;;;;;;;;;;;;;;4205847;28;19916;-40
2023/03/16 05:40:17;;;;;;;;;;;;;;;;;;4197442;28;19946;-39
2023/03/16 05:42:25;;;;;;;;;;;;;;;;;;4211309;28;20352;-40
2023/03/16 05:44:32;;;;;;;;;;;;;;;;;;4229694;28;19949;-40
2023/03/16 05:46:39;;;;;;;;;;;;;;;;;;4215953;28;19924;-39
2023/03/16 05:48:41;;;;;;;;;;;;;;;;;;4213247;28;19916;-40
2023/03/16 05:50:43;;;;;;;;;;;;;;;;;;4206044;28;19924;-40
2023/03/16 05:52:46;;;;;;;;;;;;;;;;;;4203454;28;20381;-39
2023/03/16 05:54:53;;;;;;;;;;;;;;;;;;4211511;28;19916;-40
2023/03/16 05:56:54;;;;;;;;;;;;;;;;;;4201334;28;20322;-40
2023/03/16 05:58:55;;;;;;;;;;;;;;;;;;4211421;28;20053;-39
2023/03/16 06:00:57;;;;;;;;;;;;;;;;;;4207164;28;19920;-39
2023/03/16 06:03:02;;;;;;;;;;;;;;;;;;4209137;28;20313;-40
2023/03/16 06:05:08;;;;;;;;;;;;;;;;;;4209254;28;20402;-39
2023/03/16 06:07:10;;;;;;;;;;;;;;;;;;4209381;28;19927;-40
2023/03/16 06:09:11;;;;;;;;;;;;;;;;;;4227643;28;20306;-40
2023/03/16 06:11:12;;;;;;;;;;;;;;;;;;4209579;28;20399;-40
2023/03/16 06:13:14;;;;;;;;;;;;;;;;;;4195166;28;19924;-39
2023/03/16 06:15:16;;;;;;;;;;;;;;;;;;4197878;28;19923;-39
2023/03/16 06:17:17;;;;;;;;;;;;;;;;;;4218654;28;19963;-39
2023/03/16 06:19:18;;;;;;;;;;;;;;;;;;4209338;28;19916;-40
2023/03/16 06:21:22;;;;;;;;;;;;;;;;;;4191919;28;19954;-40
2023/03/16 06:23:25;;;;;;;;;;;;;;;;;;4197227;28;19950;-40
2023/03/16 06:25:26;;;;;;;;;;;;;;;;;;4208390;28;20398;-40
2023/03/16 06:27:27;;;;;;;;;;;;;;;;;;4202898;28;19920;-40
2023/03/16 06:29:44;;;;;;;;;;;;;;;;;;4208399;28;19932;-39
2023/03/16 06:31:45;;;;;;;;;;;;;;;;;;4191999;28;20383;-39
2023/03/16 06:33:46;;;;;;;;;;;;;;;;;;4201148;28;20481;-39
2023/03/16 06:35:48;;;;;;;;;;;;;;;;;;4209054;28;19920;-40
2023/03/16 06:37:56;;;;;;;;;;;;;;;;;;4209519;28;19919;-40
2023/03/16 06:40:13;;;;;;;;;;;;;;;;;;4226286;28;19919;-41
2023/03/16 06:42:14;;;;;;;;;;;;;;;;;;4201500;28;19920;-40
2023/03/16 06:44:16;;;;;;;;;;;;;;;;;;4196179;28;19920;-40
2023/03/16 06:46:27;;;;;;;;;;;;;;;;;;4205190;28;19928;-41
2023/03/16 06:48:28;;;;;;;;;;;;;;;;;;4212465;28;19930;-39
2023/03/16 06:50:30;;;;;;;;;;;;;;;;;;4197507;28;20705;-39
2023/03/16 06:52:30;;;;;;;;;;;;;;;;;;4197452;28;20907;-41
2023/03/16 06:54:34;;;;;;;;;;;;;;;;;;4194318;28;19920;-42
2023/03/16 06:56:35;;;;;;;;;;;;;;;;;;4201007;28;19950;-40
2023/03/16 06:58:36;;;;;;;;;;;;;;;;;;4213713;28;19920;-41
2023/03/16 07:00:37;;;;;;;;;;;;;;;;;;4215539;28;20025;-42
2023/03/16 07:02:39;;;;;;;;;;;;;;;;;;4208260;28;19923;-42
2023/03/16 07:04:42;;;;;;;;;;;;;;;;;;4201585;28;19981;-43
2023/03/16 07:06:43;;;;;;;;;;;;;;;;;;4202042;28;19920;-43
2023/03/16 07:08:44;;;;;;;;;;;;;;;;;;4212833;28;20015;-40
2023/03/16 07:10:46;;;;;;;;;;;;;;;;;;4192071;28;19929;-39
2023/03/16 07:12:48;;;;;;;;;;;;;;;;;;4184013;28;19935;-39
2023/03/16 07:14:50;;;;;;;;;;;;;;;;;;4208469;28;19923;-40
2023/03/16 07:16:51;;;;;;;;;;;;;;;;;;4197361;28;19920;-40
2023/03/16 07:18:53;;;;;;;;;;;;;;;;;;4201293;28;20004;-40
2023/03/16 07:20:54;;;;;;;;;;;;;;;;;;4201303;28;19921;-40
2023/03/16 07:22:58;;;;;;;;;;;;;;;;;;4199725;28;19972;-40
2023/03/16 07:24:59;;;;;;;;;;;;;;;;;;4212495;28;19931;-42
2023/03/16 07:27:01;;;;;;;;;;;;;;;;;;4201038;28;19939;-41
2023/03/16 07:29:05;;;;;;;;;;;;;;;;;;4200293;28;19939;-41
2023/03/16 07:31:08;;;;;;;;;;;;;;;;;;4192782;28;20469;-43
2023/03/16 07:33:13;;;;;;;;;;;;;;;;;;4195956;28;19920;-35
2023/03/16 07:35:14;;;;;;;;;;;;;;;;;;4211842;28;19919;-35
2023/03/16 07:37:15;;;;;;;;;;;;;;;;;;4198687;28;19946;-40
2023/03/16 07:39:18;;;;;;;;;;;;;;;;;;4216744;28;20365;-38
2023/03/16 07:41:20;;;;;;;;;;;;;;;;;;4182167;28;19920;-38
2023/03/16 07:43:21;;;;;;;;;;;;;;;;;;4215203;27;19919;-36
2023/03/16 07:45:25;;;;;;;;;;;;;;;;;;4190916;28;19927;-36
2023/03/16 07:47:27;;;;;;;;;;;;;;;;;;4194982;28;19920;-36
2023/03/16 07:49:31;;;;;;;;;;;;;;;;;;4191014;28;20470;-35
2023/03/16 07:51:34;;;;;;;;;;;;;;;;;;4197458;28;20061;-35
2023/03/16 07:53:35;;;;;;;;;;;;;;;;;;4198360;28;19923;-35
2023/03/16 07:55:48;;;;;;;;;;;;;;;;;;4207200;28;20252;-36
2023/03/16 07:57:50;;;;;;;;;;;;;;;;;;4197628;28;20232;-35
2023/03/16 07:59:54;;;;;;;;;;;;;;;;;;4194488;28;20037;-35
2023/03/16 08:01:55;;;;;;;;;;;;;;;;;;4207363;27;20448;-36
2023/03/16 08:03:56;;;;;;;;;;;;;;;;;;4211098;28;19927;-37
2023/03/16 08:05:57;;;;;;;;;;;;;;;;;;4207292;28;20000;-36
2023/03/16 08:08:00;;;;;;;;;;;;;;;;;;4191763;28;19926;-36
2023/03/16 08:10:02;;;;;;;;;;;;;;;;;;4178380;28;19928;-39
2023/03/16 08:12:11;;;;;;;;;;;;;;;;;;4195655;28;20610;-36
2023/03/16 08:14:13;;;;;;;;;;;;;;;;;;4195503;28;20309;-36
2023/03/16 08:16:36;;;;;;;;;;;;;;;;;;4215150;28;19930;-37
2023/03/16 08:18:38;;;;;;;;;;;;;;;;;;4188578;28;19936;-36
2023/03/16 08:20:40;;;;;;;;;;;;;;;;;;4202770;28;19977;-36
2023/03/16 08:22:45;;;;;;;;;;;;;;;;;;4188204;28;19924;-36
2023/03/16 08:24:47;;;;;;;;;;;;;;;;;;4191887;28;19977;-36
2023/03/16 08:26:50;;;;;;;;;;;;;;;;;;4191972;28;20382;-36
2023/03/16 08:28:52;;;;;;;;;;;;;;;;;;4199158;28;20374;-40
2023/03/16 08:30:54;;;;;;;;;;;;;;;;;;4187950;28;20052;-36
2023/03/16 08:33:05;;;;;;;;;;;;;;;;;;4187516;28;20343;-35
2023/03/16 08:35:06;;;;;;;;;;;;;;;;;;4188157;28;19935;-37
2023/03/16 08:37:08;;;;;;;;;;;;;;;;;;4186441;28;20231;-36
2023/03/16 08:39:09;;;;;;;;;;;;;;;;;;4174652;28;20913;-38
2023/03/16 08:41:16;;;;;;;;;;;;;;;;;;4207835;28;19935;-38
2023/03/16 08:43:18;;;;;;;;;;;;;;;;;;4184053;28;19923;-38
2023/03/16 08:45:18;;;;;;;;;;;;;;;;;;4199133;27;20071;-36
2023/03/16 08:47:19;;;;;;;;;;;;;;;;;;4186796;28;20354;-36
2023/03/16 08:49:21;;;;;;;;;;;;;;;;;;4168554;28;19937;-37
2023/03/16 08:51:28;;;;;;;;;;;;;;;;;;4188341;28;19970;-35
2023/03/16 08:53:29;;;;;;;;;;;;;;;;;;4192127;28;20027;-36
2023/03/16 08:55:30;;;;;;;;;;;;;;;;;;4191395;28;19970;-36
2023/03/16 08:57:32;;;;;;;;;;;;;;;;;;4186282;28;19924;-35
2023/03/16 08:59:33;;;;;;;;;;;;;;;;;;4199791;28;20576;-35
2023/03/16 09:01:34;;;;;;;;;;;;;;;;;;4201895;27;19923;-35
2023/03/16 09:03:35;;;;;;;;;;;;;;;;;;4195457;28;20348;-35
2023/03/16 09:05:37;;;;;;;;;;;;;;;;;;4203801;28;19957;-36
2023/03/16 09:07:38;;;;;;;;;;;;;;;;;;4185247;28;19989;-36
2023/03/16 09:09:39;;;;;;;;;;;;;;;;;;4192061;28;20231;-36
2023/03/16 09:11:41;;;;;;;;;;;;;;;;;;4206807;27;19924;-35
2023/03/16 09:13:43;;;;;;;;;;;;;;;;;;4205998;28;20144;-36
2023/03/16 09:15:44;;;;;;;;;;;;;;;;;;4200125;28;19980;-35
2023/03/16 09:17:45;;;;;;;;;;;;;;;;;;4183628;28;20315;-36
2023/03/16 09:19:46;;;;;;;;;;;;;;;;;;4187152;28;19941;-36
2023/03/16 09:21:48;;;;;;;;;;;;;;;;;;4196062;28;19927;-37
2023/03/16 09:23:49;;;;;;;;;;;;;;;;;;4197276;28;19923;-35
2023/03/16 09:25:50;;;;;;;;;;;;;;;;;;4184992;28;19958;-36
2023/03/16 09:27:52;;;;;;;;;;;;;;;;;;4200310;28;19927;-36
2023/03/16 09:29:55;;;;;;;;;;;;;;;;;;4202999;28;21101;-37
2023/03/16 09:31:56;;;;;;;;;;;;;;;;;;4204243;28;19968;-36
2023/03/16 09:33:57;;;;;;;;;;;;;;;;;;4204190;28;19931;-35
2023/03/16 09:35:58;;;;;;;;;;;;;;;;;;4204772;28;20010;-35
2023/03/16 09:37:59;;;;;;;;;;;;;;;;;;4207473;28;19927;-37
2023/03/16 09:40:00;;;;;;;;;;;;;;;;;;4189129;28;19973;-35
2023/03/16 09:42:03;;;;;;;;;;;;;;;;;;4202717;28;19924;-36
2023/03/16 09:44:04;;;;;;;;;;;;;;;;;;4210584;28;19923;-37
2023/03/16 09:46:05;;;;;;;;;;;;;;;;;;4204840;28;19931;-37
2023/03/16 09:48:08;;;;;;;;;;;;;;;;;;4208061;28;19931;-36
2023/03/16 09:50:09;;;;;;;;;;;;;;;;;;4206606;28;19928;-36
2023/03/16 09:52:11;;;;;;;;;;;;;;;;;;4210033;28;19969;-35
2023/03/16 09:54:14;;;;;;;;;;;;;;;;;;4209498;28;19919;-34
2023/03/16 09:56:15;;;;;;;;;;;;;;;;;;4208708;28;19939;-35
2023/03/16 09:58:16;;;;;;;;;;;;;;;;;;4208850;28;19941;-35
2023/03/16 10:00:17;;;;;;;;;;;;;;;;;;4192337;28;19920;-35
2023/03/16 10:02:18;;;;;;;;;;;;;;;;;;4207689;28;21412;-36
2023/03/16 10:04:20;;;;;;;;;;;;;;;;;;4199061;28;20516;-36
2023/03/16 10:06:20;;;;;;;;;;;;;;;;;;4205301;28;19934;-36
2023/03/16 10:08:23;;;;;;;;;;;;;;;;;;4188198;28;20543;-36
2023/03/16 10:10:24;;;;;;;;;;;;;;;;;;4202056;28;19927;-39
2023/03/16 10:12:26;;;;;;;;;;;;;;;;;;4190780;28;19969;-35
2023/03/16 10:14:27;;;;;;;;;;;;;;;;;;4214928;27;20371;-36
2023/03/16 10:16:29;;;;;;;;;;;;;;;;;;4207463;28;19924;-37
2023/03/16 10:18:31;;;;;;;;;;;;;;;;;;4199285;28;22763;-37
2023/03/16 10:20:32;;;;;;;;;;;;;;;;;;4199576;28;20240;-36
2023/03/16 10:22:34;;;;;;;;;;;;;;;;;;4208838;28;19946;-36
2023/03/16 10:24:35;;;;;;;;;;;;;;;;;;4204046;28;19923;-37
2023/03/16 10:26:37;;;;;;;;;;;;;;;;;;4211490;28;20370;-39
2023/03/16 10:28:39;;;;;;;;;;;;;;;;;;4190677;28;19928;-38
2023/03/16 10:30:41;;;;;;;;;;;;;;;;;;4200425;28;19995;-39
2023/03/16 10:32:42;;;;;;;;;;;;;;;;;;4199987;28;19984;-42
2023/03/16 10:34:43;;;;;;;;;;;;;;;;;;4187551;28;19935;-38
2023/03/16 10:36:46;;;;;;;;;;;;;;;;;;4196352;28;20005;-38
2023/03/16 10:38:48;;;;;;;;;;;;;;;;;;4188118;28;20343;-36
2023/03/16 10:40:49;;;;;;;;;;;;;;;;;;4186773;28;20470;-38
2023/03/16 10:42:50;;;;;;;;;;;;;;;;;;4205946;28;19982;-39
2023/03/16 10:44:51;;;;;;;;;;;;;;;;;;4200245;28;19924;-39
2023/03/16 10:46:54;;;;;;;;;;;;;;;;;;4202432;28;20327;-38
2023/03/16 10:48:58;;;;;;;;;;;;;;;;;;4198886;28;20468;-39
2023/03/16 10:51:00;;;;;;;;;;;;;;;;;;4190315;28;20006;-37
2023/03/16 10:53:01;;;;;;;;;;;;;;;;;;4207357;28;19977;-37
2023/03/16 10:55:04;;;;;;;;;;;;;;;;;;4203115;27;19954;-37
2023/03/16 10:57:05;;;;;;;;;;;;;;;;;;4208113;28;20357;-38
2023/03/16 10:59:07;;;;;;;;;;;;;;;;;;4182297;28;19974;-37
2023/03/16 11:01:08;;;;;;;;;;;;;;;;;;4202503;28;19943;-41
2023/03/16 11:03:09;;;;;;;;;;;;;;;;;;4192827;28;19928;-38
2023/03/16 11:05:10;;;;;;;;;;;;;;;;;;4208485;28;19935;-38
2023/03/16 11:07:13;;;;;;;;;;;;;;;;;;4207514;28;19924;-38
2023/03/16 11:09:15;;;;;;;;;;;;;;;;;;4204362;28;19924;-38
2023/03/16 11:11:16;;;;;;;;;;;;;;;;;;4207847;28;20015;-38
2023/03/16 11:13:17;;;;;;;;;;;;;;;;;;4205006;28;20594;-38
2023/03/16 11:15:19;;;;;;;;;;;;;;;;;;4210635;27;19919;-38
2023/03/16 11:17:20;;;;;;;;;;;;;;;;;;4204783;28;19924;-38
2023/03/16 11:19:21;;;;;;;;;;;;;;;;;;4193119;28;20080;-39
2023/03/16 11:21:24;;;;;;;;;;;;;;;;;;4202345;28;19955;-40
2023/03/16 11:23:25;;;;;;;;;;;;;;;;;;4193356;28;19920;-38
2023/03/16 11:25:27;;;;;;;;;;;;;;;;;;4198054;28;19926;-38
2023/03/16 11:27:28;;;;;;;;;;;;;;;;;;4208139;28;20382;-39
2023/03/16 11:29:31;;;;;;;;;;;;;;;;;;4211101;28;19919;-37
2023/03/16 11:31:32;;;;;;;;;;;;;;;;;;4188620;28;20284;-38
2023/03/16 11:33:34;;;;;;;;;;;;;;;;;;4205289;28;20445;-38
2023/03/16 11:35:35;;;;;;;;;;;;;;;;;;4210318;28;19923;-39
2023/03/16 11:37:36;;;;;;;;;;;;;;;;;;4204202;28;19919;-37
2023/03/16 11:39:39;;;;;;;;;;;;;;;;;;4210110;28;19926;-37
2023/03/16 11:41:40;;;;;;;;;;;;;;;;;;4214959;28;19924;-38
2023/03/16 11:43:41;;;;;;;;;;;;;;;;;;4203581;28;20302;-37
2023/03/16 11:45:44;;;;;;;;;;;;;;;;;;4197774;28;19985;-38
2023/03/16 11:47:45;;;;;;;;;;;;;;;;;;4209517;28;19927;-37
2023/03/16 11:49:46;;;;;;;;;;;;;;;;;;4206075;28;19924;-39
2023/03/16 11:51:47;;;;;;;;;;;;;;;;;;4207728;28;19924;-36
2023/03/16 11:53:49;;;;;;;;;;;;;;;;;;4208970;28;19924;-37
2023/03/16 11:55:50;;;;;;;;;;;;;;;;;;4206618;28;20631;-39
2023/03/16 11:57:51;;;;;;;;;;;;;;;;;;4204575;28;19924;-38
2023/03/16 11:59:53;;;;;;;;;;;;;;;;;;4197209;28;19923;-37
2023/03/16 12:01:55;;;;;;;;;;;;;;;;;;4189412;28;19919;-38
2023/03/16 12:03:57;;;;;;;;;;;;;;;;;;4181616;28;19968;-37
2023/03/16 12:06:00;;;;;;;;;;;;;;;;;;4196995;28;20395;-37
2023/03/16 12:08:03;;;;;;;;;;;;;;;;;;4203447;27;20289;-36
2023/03/16 12:10:05;;;;;;;;;;;;;;;;;;4202204;28;20310;-37
2023/03/16 12:12:06;;;;;;;;;;;;;;;;;;4206042;28;20477;-37
2023/03/16 12:14:07;;;;;;;;;;;;;;;;;;4198607;28;19922;-35
2023/03/16 12:16:09;;;;;;;;;;;;;;;;;;4206564;28;19923;-36
2023/03/16 12:18:10;;;;;;;;;;;;;;;;;;4212654;28;20009;-35
2023/03/16 12:20:12;;;;;;;;;;;;;;;;;;4204336;28;20592;-37
2023/03/16 12:22:14;;;;;;;;;;;;;;;;;;4204695;28;19931;-35
2023/03/16 12:24:15;;;;;;;;;;;;;;;;;;4202274;28;19989;-37
2023/03/16 12:26:16;;;;;;;;;;;;;;;;;;4200606;27;20904;-37
2023/03/16 12:28:17;;;;;;;;;;;;;;;;;;4185347;28;20659;-36
2023/03/16 12:30:19;;;;;;;;;;;;;;;;;;4203541;28;20324;-36
2023/03/16 12:32:20;;;;;;;;;;;;;;;;;;4197729;28;20012;-37
2023/03/16 12:34:23;;;;;;;;;;;;;;;;;;4185065;28;19950;-35
2023/03/16 12:36:24;;;;;;;;;;;;;;;;;;4201541;28;20437;-36
2023/03/16 12:38:26;;;;;;;;;;;;;;;;;;4201379;28;19962;-36
2023/03/16 12:40:28;;;;;;;;;;;;;;;;;;4197477;28;19957;-35
2023/03/16 12:42:29;;;;;;;;;;;;;;;;;;4195780;28;19931;-36
2023/03/16 12:44:31;;;;;;;;;;;;;;;;;;4212979;27;20228;-35
2023/03/16 12:46:32;;;;;;;;;;;;;;;;;;4200024;28;20009;-38
2023/03/16 12:48:34;;;;;;;;;;;;;;;;;;4215587;27;20301;-36
2023/03/16 12:50:35;;;;;;;;;;;;;;;;;;4217009;27;19996;-36
2023/03/16 12:52:36;;;;;;;;;;;;;;;;;;4215437;27;19971;-36
2023/03/16 12:54:38;;;;;;;;;;;;;;;;;;4217187;27;19927;-35
2023/03/16 12:56:39;;;;;;;;;;;;;;;;;;4213925;27;20290;-35
2023/03/16 12:58:40;;;;;;;;;;;;;;;;;;4207594;27;20012;-36
2023/03/16 13:00:41;;;;;;;;;;;;;;;;;;4211969;27;19927;-36
2023/03/16 13:02:43;;;;;;;;;;;;;;;;;;4215278;27;19935;-36
2023/03/16 13:04:44;;;;;;;;;;;;;;;;;;4220250;27;19927;-36
2023/03/16 13:06:47;;;;;;;;;;;;;;;;;;4221765;27;19927;-35
2023/03/16 13:08:48;;;;;;;;;;;;;;;;;;4221434;27;19930;-37
2023/03/16 13:10:49;;;;;;;;;;;;;;;;;;4219113;27;19927;-37
2023/03/16 13:12:50;;;;;;;;;;;;;;;;;;4220015;27;19923;-37
2023/03/16 13:14:53;;;;;;;;;;;;;;;;;;4223991;27;20046;-36
2023/03/16 13:16:56;;;;;;;;;;;;;;;;;;4205012;28;20513;-36
2023/03/16 13:18:57;;;;;;;;;;;;;;;;;;4221612;28;19923;-36
2023/03/16 13:20:58;;;;;;;;;;;;;;;;;;4216992;28;19915;-35
2023/03/16 13:22:59;;;;;;;;;;;;;;;;;;4224839;27;19924;-36
2023/03/16 13:25:00;;;;;;;;;;;;;;;;;;4221377;27;19931;-35
2023/03/16 13:27:01;;;;;;;;;;;;;;;;;;4220615;27;20000;-36
2023/03/16 13:29:02;;;;;;;;;;;;;;;;;;4222580;27;20015;-35
2023/03/16 13:31:03;;;;;;;;;;;;;;;;;;4219040;27;20438;-36
2023/03/16 13:33:05;;;;;;;;;;;;;;;;;;4219263;28;19930;-37
2023/03/16 13:35:08;;;;;;;;;;;;;;;;;;4218843;28;19969;-35
2023/03/16 13:37:10;;;;;;;;;;;;;;;;;;4219245;28;19973;-38
2023/03/16 13:39:12;;;;;;;;;;;;;;;;;;4222065;28;19923;-37
2023/03/16 13:41:13;;;;;;;;;;;;;;;;;;4217289;28;19919;-37
2023/03/16 13:43:14;;;;;;;;;;;;;;;;;;4223788;28;19924;-37
2023/03/16 13:45:17;;;;;;;;;;;;;;;;;;4225874;28;19923;-36
2023/03/16 13:47:19;;;;;;;;;;;;;;;;;;4224003;27;19930;-36
2023/03/16 13:49:20;;;;;;;;;;;;;;;;;;4229424;27;19976;-35
2023/03/16 13:51:22;;;;;;;;;;;;;;;;;;4225387;27;19973;-36
2023/03/16 13:53:24;;;;;;;;;;;;;;;;;;4225677;27;19927;-37
2023/03/16 13:55:25;;;;;;;;;;;;;;;;;;4222074;27;19923;-36